sensor_id;sensor_type;location;lat;lon;timestamp;temperature;humidity
21115;DHT22;10715;48.546;9.896;2022-09-04T00:04:51;12.30;99.90
21115;DHT22;10715;48.546;9.896;2022-09-04T00:15:28;12.10;99.90
21115;DHT22;10715;48.546;9.896;2022-09-04T00:18:25;12.00;99.90
21115;DHT22;10715;48.546;9.896;2022-09-04T00:20:59;11.90;99.90
21115;DHT22;10715;48.546;9.896;2022-09-04T00:28:47;11.80;99.90
21115;DHT22;10715;48.546;9.896;2022-09-04T00:36:41;11.60;99.90
21115;DHT22;10715;48.546;9.896;2022-09-04T00:39:22;11.60;99.90
21115;DHT22;10715;48.546;9.896;2022-09-04T00:45:20;11.50;99.90
21115;DHT22;10715;48.546;9.896;2022-09-04T00:51:35;11.40;99.90
21115;DHT22;10715;48.546;9.896;2022-09-04T01:00:13;11.30;99.90
21115;DHT22;10715;48.546;9.896;2022-09-04T01:16:26;11.00;99.90
21115;DHT22;10715;48.546;9.896;2022-09-04T01:19:06;10.90;99.90
21115;DHT22;10715;48.546;9.896;2022-09-04T01:30:16;10.90;99.90
21115;DHT22;10715;48.546;9.896;2022-09-04T01:33:00;10.90;99.90
21115;DHT22;10715;48.546;9.896;2022-09-04T01:43:44;10.70;99.90
21115;DHT22;10715;48.546;9.896;2022-09-04T01:59:31;10.50;99.90
21115;DHT22;10715;48.546;9.896;2022-09-04T02:04:53;10.40;99.90
21115;DHT22;10715;48.546;9.896;2022-09-04T02:10:14;10.30;99.90
21115;DHT22;10715;48.546;9.896;2022-09-04T02:15:28;10.20;99.90
21115;DHT22;10715;48.546;9.896;2022-09-04T02:18:38;10.20;99.90
21115;DHT22;10715;48.546;9.896;2022-09-04T02:21:04;10.20;99.90
21115;DHT22;10715;48.546;9.896;2022-09-04T02:23:39;10.10;99.90
21115;DHT22;10715;48.546;9.896;2022-09-04T02:26:23;10.10;99.90
21115;DHT22;10715;48.546;9.896;2022-09-04T02:31:50;10.00;99.90
21115;DHT22;10715;48.546;9.896;2022-09-04T02:34:36;10.00;99.90
21115;DHT22;10715;48.546;9.896;2022-09-04T02:43:45;10.00;99.90
21115;DHT22;10715;48.546;9.896;2022-09-04T02:46:26;10.00;99.90
21115;DHT22;10715;48.546;9.896;2022-09-04T02:57:51;10.00;99.90
21115;DHT22;10715;48.546;9.896;2022-09-04T03:00:21;9.90;99.90
21115;DHT22;10715;48.546;9.896;2022-09-04T03:03:02;9.90;99.90
21115;DHT22;10715;48.546;9.896;2022-09-04T03:05:33;9.90;99.90
21115;DHT22;10715;48.546;9.896;2022-09-04T03:08:19;9.90;99.90
21115;DHT22;10715;48.546;9.896;2022-09-04T03:10:53;9.90;99.90
21115;DHT22;10715;48.546;9.896;2022-09-04T03:13:22;9.90;99.90
21115;DHT22;10715;48.546;9.896;2022-09-04T03:16:06;9.90;99.90
21115;DHT22;10715;48.546;9.896;2022-09-04T03:19:00;9.90;99.90
21115;DHT22;10715;48.546;9.896;2022-09-04T03:22:05;9.90;99.90
21115;DHT22;10715;48.546;9.896;2022-09-04T03:27:12;9.90;99.90
21115;DHT22;10715;48.546;9.896;2022-09-04T03:51:22;9.70;99.90
21115;DHT22;10715;48.546;9.896;2022-09-04T03:54:43;9.60;99.90
21115;DHT22;10715;48.546;9.896;2022-09-04T04:00:21;9.50;99.90
21115;DHT22;10715;48.546;9.896;2022-09-04T04:11:23;9.40;99.90
21115;DHT22;10715;48.546;9.896;2022-09-04T04:19:44;9.30;99.90
21115;DHT22;10715;48.546;9.896;2022-09-04T04:25:05;9.30;99.90
21115;DHT22;10715;48.546;9.896;2022-09-04T04:28:10;9.30;99.90
21115;DHT22;10715;48.546;9.896;2022-09-04T04:30:49;9.30;99.90
21115;DHT22;10715;48.546;9.896;2022-09-04T04:33:47;9.20;99.90
21115;DHT22;10715;48.546;9.896;2022-09-04T04:39:10;9.20;99.90
21115;DHT22;10715;48.546;9.896;2022-09-04T04:41:51;9.20;99.90
21115;DHT22;10715;48.546;9.896;2022-09-04T04:45:08;9.20;99.90
21115;DHT22;10715;48.546;9.896;2022-09-04T04:53:21;9.10;99.90
21115;DHT22;10715;48.546;9.896;2022-09-04T04:55:57;9.20;99.90
21115;DHT22;10715;48.546;9.896;2022-09-04T05:01:04;9.10;99.90
21115;DHT22;10715;48.546;9.896;2022-09-04T05:03:59;9.10;99.90
21115;DHT22;10715;48.546;9.896;2022-09-04T05:06:32;9.20;99.90
21115;DHT22;10715;48.546;9.896;2022-09-04T05:09:20;9.20;99.90
21115;DHT22;10715;48.546;9.896;2022-09-04T05:12:10;9.40;99.90
21115;DHT22;10715;48.546;9.896;2022-09-04T05:15:00;10.00;99.90
21115;DHT22;10715;48.546;9.896;2022-09-04T05:17:56;10.80;99.90
21115;DHT22;10715;48.546;9.896;2022-09-04T05:28:25;14.30;99.90
21115;DHT22;10715;48.546;9.896;2022-09-04T05:37:06;15.80;99.90
21115;DHT22;10715;48.546;9.896;2022-09-04T05:48:14;18.50;99.90
21115;DHT22;10715;48.546;9.896;2022-09-04T05:59:46;20.30;99.90
21115;DHT22;10715;48.546;9.896;2022-09-04T06:47:27;14.10;99.90
21115;DHT22;10715;48.546;9.896;2022-09-04T06:52:50;14.20;99.90
21115;DHT22;10715;48.546;9.896;2022-09-04T07:00:59;14.40;99.90
21115;DHT22;10715;48.546;9.896;2022-09-04T07:06:21;14.60;99.90
21115;DHT22;10715;48.546;9.896;2022-09-04T07:09:18;14.60;99.90
21115;DHT22;10715;48.546;9.896;2022-09-04T07:25:09;15.40;99.90
21115;DHT22;10715;48.546;9.896;2022-09-04T07:33:27;15.80;99.90
21115;DHT22;10715;48.546;9.896;2022-09-04T07:36:07;15.90;99.90
21115;DHT22;10715;48.546;9.896;2022-09-04T07:38:49;16.10;99.90
21115;DHT22;10715;48.546;9.896;2022-09-04T07:41:50;16.20;99.90
21115;DHT22;10715;48.546;9.896;2022-09-04T07:44:58;16.40;99.90
21115;DHT22;10715;48.546;9.896;2022-09-04T07:50:17;16.80;99.90
21115;DHT22;10715;48.546;9.896;2022-09-04T07:53:18;16.90;99.90
21115;DHT22;10715;48.546;9.896;2022-09-04T07:55:51;17.00;99.90
21115;DHT22;10715;48.546;9.896;2022-09-04T08:16:59;17.80;99.90
21115;DHT22;10715;48.546;9.896;2022-09-04T08:19:48;18.10;99.90
21115;DHT22;10715;48.546;9.896;2022-09-04T08:22:34;18.30;99.90
21115;DHT22;10715;48.546;9.896;2022-09-04T08:30:50;18.90;99.90
21115;DHT22;10715;48.546;9.896;2022-09-04T09:10:35;23.90;99.90
21115;DHT22;10715;48.546;9.896;2022-09-04T09:18:37;28.60;99.90
21115;DHT22;10715;48.546;9.896;2022-09-04T09:21:39;28.10;99.90
21115;DHT22;10715;48.546;9.896;2022-09-04T09:32:47;34.00;76.70
21115;DHT22;10715;48.546;9.896;2022-09-04T09:35:56;32.50;78.60
21115;DHT22;10715;48.546;9.896;2022-09-04T10:11:42;26.80;90.20
21115;DHT22;10715;48.546;9.896;2022-09-04T10:14:39;28.90;82.90
21115;DHT22;10715;48.546;9.896;2022-09-04T10:33:31;36.80;55.40
21115;DHT22;10715;48.546;9.896;2022-09-04T10:42:09;30.70;67.70
21115;DHT22;10715;48.546;9.896;2022-09-04T11:09:48;32.30;62.90
21115;DHT22;10715;48.546;9.896;2022-09-04T11:18:02;33.10;59.90
21115;DHT22;10715;48.546;9.896;2022-09-04T11:29:37;38.10;49.90
21115;DHT22;10715;48.546;9.896;2022-09-04T11:42:33;29.00;65.90
21115;DHT22;10715;48.546;9.896;2022-09-04T11:48:29;26.60;72.00
21115;DHT22;10715;48.546;9.896;2022-09-04T11:56:49;25.30;75.90
21115;DHT22;10715;48.546;9.896;2022-09-04T12:27:21;23.60;84.10
21115;DHT22;10715;48.546;9.896;2022-09-04T12:38:37;23.80;84.10
21115;DHT22;10715;48.546;9.896;2022-09-04T12:41:19;24.00;82.90
21115;DHT22;10715;48.546;9.896;2022-09-04T12:58:30;23.90;82.80
21115;DHT22;10715;48.546;9.896;2022-09-04T13:22:00;24.20;82.10
21115;DHT22;10715;48.546;9.896;2022-09-04T13:30:19;24.80;81.30
21115;DHT22;10715;48.546;9.896;2022-09-04T13:44:37;24.90;77.30
21115;DHT22;10715;48.546;9.896;2022-09-04T13:49:55;24.30;78.20
21115;DHT22;10715;48.546;9.896;2022-09-04T13:52:28;24.40;77.60
21115;DHT22;10715;48.546;9.896;2022-09-04T13:55:17;24.60;77.60
21115;DHT22;10715;48.546;9.896;2022-09-04T14:00:54;24.50;79.60
21115;DHT22;10715;48.546;9.896;2022-09-04T14:05:56;24.30;76.70
21115;DHT22;10715;48.546;9.896;2022-09-04T14:08:23;24.20;78.60
21115;DHT22;10715;48.546;9.896;2022-09-04T14:13:56;23.60;78.80
21115;DHT22;10715;48.546;9.896;2022-09-04T14:16:23;23.30;80.80
21115;DHT22;10715;48.546;9.896;2022-09-04T14:21:46;23.70;79.90
21115;DHT22;10715;48.546;9.896;2022-09-04T14:30:04;23.90;81.60
21115;DHT22;10715;48.546;9.896;2022-09-04T14:44:33;23.90;79.70
21115;DHT22;10715;48.546;9.896;2022-09-04T14:47:07;23.90;80.30
21115;DHT22;10715;48.546;9.896;2022-09-04T14:49:42;24.00;80.00
21115;DHT22;10715;48.546;9.896;2022-09-04T14:52:32;24.00;76.70
21115;DHT22;10715;48.546;9.896;2022-09-04T14:55:02;24.10;78.40
21115;DHT22;10715;48.546;9.896;2022-09-04T14:57:37;24.20;78.50
21115;DHT22;10715;48.546;9.896;2022-09-04T15:00:10;24.30;78.20
21115;DHT22;10715;48.546;9.896;2022-09-04T15:07:56;24.80;77.30
21115;DHT22;10715;48.546;9.896;2022-09-04T15:10:46;24.90;78.30
21115;DHT22;10715;48.546;9.896;2022-09-04T15:16:16;25.00;76.10
21115;DHT22;10715;48.546;9.896;2022-09-04T15:18:58;25.00;74.10
21115;DHT22;10715;48.546;9.896;2022-09-04T15:30:20;24.40;78.50
21115;DHT22;10715;48.546;9.896;2022-09-04T15:32:48;24.20;79.10
21115;DHT22;10715;48.546;9.896;2022-09-04T15:35:23;24.10;79.70
21115;DHT22;10715;48.546;9.896;2022-09-04T15:38:18;24.00;79.20
21115;DHT22;10715;48.546;9.896;2022-09-04T15:43:31;23.70;77.00
21115;DHT22;10715;48.546;9.896;2022-09-04T15:46:15;23.60;78.80
21115;DHT22;10715;48.546;9.896;2022-09-04T15:51:51;23.50;80.10
21115;DHT22;10715;48.546;9.896;2022-09-04T15:57:27;23.30;81.30
21115;DHT22;10715;48.546;9.896;2022-09-04T16:00:07;23.20;81.40
21115;DHT22;10715;48.546;9.896;2022-09-04T16:02:50;23.20;82.00
21115;DHT22;10715;48.546;9.896;2022-09-04T16:11:18;22.90;80.30
21115;DHT22;10715;48.546;9.896;2022-09-04T16:19:06;22.70;84.30
21115;DHT22;10715;48.546;9.896;2022-09-04T16:24:34;22.50;85.90
21115;DHT22;10715;48.546;9.896;2022-09-04T16:27:11;22.40;86.20
21115;DHT22;10715;48.546;9.896;2022-09-04T16:29:44;22.20;86.90
21115;DHT22;10715;48.546;9.896;2022-09-04T16:32:19;22.10;87.90
21115;DHT22;10715;48.546;9.896;2022-09-04T16:34:49;22.10;88.40
21115;DHT22;10715;48.546;9.896;2022-09-04T16:45:22;21.50;90.10
21115;DHT22;10715;48.546;9.896;2022-09-04T16:48:16;21.30;90.80
21115;DHT22;10715;48.546;9.896;2022-09-04T16:51:03;21.00;92.00
21115;DHT22;10715;48.546;9.896;2022-09-04T16:56:39;20.50;92.60
21115;DHT22;10715;48.546;9.896;2022-09-04T17:01:59;20.20;93.70
21115;DHT22;10715;48.546;9.896;2022-09-04T17:04:49;20.00;94.50
21115;DHT22;10715;48.546;9.896;2022-09-04T17:07:34;19.80;95.10
21115;DHT22;10715;48.546;9.896;2022-09-04T17:17:55;19.30;98.20
21115;DHT22;10715;48.546;9.896;2022-09-04T17:20:36;19.10;99.00
21115;DHT22;10715;48.546;9.896;2022-09-04T17:23:24;18.90;99.90
21115;DHT22;10715;48.546;9.896;2022-09-04T17:26:05;18.80;99.90
21115;DHT22;10715;48.546;9.896;2022-09-04T17:29:25;18.70;99.90
21115;DHT22;10715;48.546;9.896;2022-09-04T17:34:10;18.40;99.90
21115;DHT22;10715;48.546;9.896;2022-09-04T17:36:46;18.30;99.90
21115;DHT22;10715;48.546;9.896;2022-09-04T17:39:20;18.20;99.90
21115;DHT22;10715;48.546;9.896;2022-09-04T17:42:23;18.10;99.90
21115;DHT22;10715;48.546;9.896;2022-09-04T17:47:41;17.70;99.90
21115;DHT22;10715;48.546;9.896;2022-09-04T17:50:14;17.60;99.90
21115;DHT22;10715;48.546;9.896;2022-09-04T17:53:02;17.50;99.90
21115;DHT22;10715;48.546;9.896;2022-09-04T17:55:31;17.40;99.90
21115;DHT22;10715;48.546;9.896;2022-09-04T18:06:24;17.10;99.90
21115;DHT22;10715;48.546;9.896;2022-09-04T18:08:52;16.90;99.90
21115;DHT22;10715;48.546;9.896;2022-09-04T18:11:31;16.80;99.90
21115;DHT22;10715;48.546;9.896;2022-09-04T18:14:09;16.70;99.90
21115;DHT22;10715;48.546;9.896;2022-09-04T18:24:50;16.30;99.90
21115;DHT22;10715;48.546;9.896;2022-09-04T18:27:47;16.20;99.90
21115;DHT22;10715;48.546;9.896;2022-09-04T18:30:13;16.10;99.90
21115;DHT22;10715;48.546;9.896;2022-09-04T18:36:19;16.00;99.90
21115;DHT22;10715;48.546;9.896;2022-09-04T18:39:10;15.90;99.90
21115;DHT22;10715;48.546;9.896;2022-09-04T18:44:39;15.70;99.90
21115;DHT22;10715;48.546;9.896;2022-09-04T18:47:22;15.60;99.90
21115;DHT22;10715;48.546;9.896;2022-09-04T18:49:52;15.60;99.90
21115;DHT22;10715;48.546;9.896;2022-09-04T18:55:41;15.60;99.90
21115;DHT22;10715;48.546;9.896;2022-09-04T19:00:56;15.50;99.90
21115;DHT22;10715;48.546;9.896;2022-09-04T19:03:30;15.40;99.90
21115;DHT22;10715;48.546;9.896;2022-09-04T19:06:01;15.30;99.90
21115;DHT22;10715;48.546;9.896;2022-09-04T19:08:37;15.30;99.90
21115;DHT22;10715;48.546;9.896;2022-09-04T19:11:17;15.20;99.90
21115;DHT22;10715;48.546;9.896;2022-09-04T19:16:27;15.00;99.90
21115;DHT22;10715;48.546;9.896;2022-09-04T19:24:34;14.80;99.90
21115;DHT22;10715;48.546;9.896;2022-09-04T19:27:13;14.70;99.90
21115;DHT22;10715;48.546;9.896;2022-09-04T19:29:47;14.60;99.90
21115;DHT22;10715;48.546;9.896;2022-09-04T19:32:27;14.60;99.90
21115;DHT22;10715;48.546;9.896;2022-09-04T19:37:58;14.40;99.90
21115;DHT22;10715;48.546;9.896;2022-09-04T19:43:05;14.40;99.90
21115;DHT22;10715;48.546;9.896;2022-09-04T19:51:49;14.10;99.90
21115;DHT22;10715;48.546;9.896;2022-09-04T19:54:19;14.00;99.90
21115;DHT22;10715;48.546;9.896;2022-09-04T19:56:58;14.00;99.90
21115;DHT22;10715;48.546;9.896;2022-09-04T19:59:36;14.00;99.90
21115;DHT22;10715;48.546;9.896;2022-09-04T20:02:22;13.90;99.90
21115;DHT22;10715;48.546;9.896;2022-09-04T20:04:53;13.80;99.90
21115;DHT22;10715;48.546;9.896;2022-09-04T20:07:47;13.80;99.90
21115;DHT22;10715;48.546;9.896;2022-09-04T20:13:41;13.70;99.90
21115;DHT22;10715;48.546;9.896;2022-09-04T20:21:30;13.40;99.90
21115;DHT22;10715;48.546;9.896;2022-09-04T20:29:40;13.30;99.90
21115;DHT22;10715;48.546;9.896;2022-09-04T20:35:04;13.20;99.90
21115;DHT22;10715;48.546;9.896;2022-09-04T20:40:26;13.00;99.90
21115;DHT22;10715;48.546;9.896;2022-09-04T20:43:26;13.00;99.90
21115;DHT22;10715;48.546;9.896;2022-09-04T20:51:28;12.80;99.90
21115;DHT22;10715;48.546;9.896;2022-09-04T21:00:11;12.70;99.90
21115;DHT22;10715;48.546;9.896;2022-09-04T21:03:01;12.60;99.90
21115;DHT22;10715;48.546;9.896;2022-09-04T21:08:23;12.50;99.90
21115;DHT22;10715;48.546;9.896;2022-09-04T21:13:59;12.40;99.90
21115;DHT22;10715;48.546;9.896;2022-09-04T21:22:46;12.40;99.90
21115;DHT22;10715;48.546;9.896;2022-09-04T21:33:35;12.30;99.90
21115;DHT22;10715;48.546;9.896;2022-09-04T21:39:19;12.20;99.90
21115;DHT22;10715;48.546;9.896;2022-09-04T22:00:53;11.70;99.90
21115;DHT22;10715;48.546;9.896;2022-09-04T22:03:43;11.70;99.90
21115;DHT22;10715;48.546;9.896;2022-09-04T22:12:08;11.70;99.90
21115;DHT22;10715;48.546;9.896;2022-09-04T22:14:43;11.70;99.90
21115;DHT22;10715;48.546;9.896;2022-09-04T22:31:30;11.40;99.90
21115;DHT22;10715;48.546;9.896;2022-09-04T22:48:24;11.30;99.90
21115;DHT22;10715;48.546;9.896;2022-09-04T22:57:05;11.10;99.90
21115;DHT22;10715;48.546;9.896;2022-09-04T23:21:20;11.00;99.90
21115;DHT22;10715;48.546;9.896;2022-09-04T23:26:34;10.90;99.90
21115;DHT22;10715;48.546;9.896;2022-09-04T23:38:17;10.70;99.90
21115;DHT22;10715;48.546;9.896;2022-09-04T23:40:34;10.70;99.90
21115;DHT22;10715;48.546;9.896;2022-09-04T23:46:38;10.60;99.90
21115;DHT22;10715;48.546;9.896;2022-09-04T23:51:47;10.60;99.90
21115;DHT22;10715;48.546;9.896;2022-09-04T23:54:28;10.60;99.90
21115;DHT22;10715;48.546;9.896;2022-09-04T23:57:26;10.50;99.90
